createdAt,value
2022-09-28T00:06:23.973Z,1001.16
2022-09-28T00:16:24.109Z,1000.78
2022-09-28T00:26:24.324Z,1000.87
2022-09-28T00:36:24.370Z,1000.28
2022-09-28T00:46:24.677Z,1000.02
2022-09-28T00:56:24.705Z,999.64
2022-09-28T01:06:25.029Z,999.50
2022-09-28T01:16:25.129Z,999.15
2022-09-28T01:26:25.275Z,998.72
2022-09-28T01:36:25.307Z,998.55
2022-09-28T01:46:25.611Z,998.40
2022-09-28T01:56:25.645Z,998.23
2022-09-28T02:06:25.978Z,998.15
2022-09-28T02:16:26.064Z,997.99
2022-09-28T02:26:26.221Z,997.89
2022-09-28T02:36:26.244Z,997.77
2022-09-28T02:46:26.562Z,997.79
2022-09-28T02:56:26.601Z,997.67
2022-09-28T03:06:26.908Z,997.52
2022-09-28T03:16:27.005Z,997.55
2022-09-28T03:26:27.154Z,997.59
2022-09-28T03:36:27.181Z,997.58
2022-09-28T03:46:27.518Z,997.38
2022-09-28T03:56:27.609Z,997.30
2022-09-28T04:06:28.572Z,997.14
2022-09-28T04:16:27.851Z,997.19
2022-09-28T04:26:30.054Z,997.12
2022-09-28T04:36:28.104Z,996.57
2022-09-28T04:46:28.373Z,996.61
2022-09-28T04:56:28.607Z,996.42
2022-09-28T05:06:28.923Z,996.73
2022-09-28T05:16:29.006Z,996.75
2022-09-28T05:26:29.169Z,996.77
2022-09-28T05:36:29.200Z,996.77
2022-09-28T05:46:29.570Z,996.71
2022-09-28T05:56:29.637Z,996.72
2022-09-28T06:06:29.975Z,996.76
2022-09-28T06:16:30.072Z,996.92
2022-09-28T06:26:30.241Z,997.19
2022-09-28T06:36:30.255Z,997.17
2022-09-28T06:46:30.630Z,997.21
2022-09-28T06:56:32.947Z,997.16
2022-09-28T07:06:31.007Z,997.28
2022-09-28T07:16:53.717Z,997.66
2022-09-28T07:26:32.306Z,997.72
2022-09-28T07:36:31.642Z,997.74
2022-09-28T07:46:31.652Z,997.80
2022-09-28T07:56:31.989Z,997.98
2022-09-28T08:06:32.009Z,998.02
2022-09-28T08:16:32.423Z,998.15
2022-09-28T08:26:32.487Z,998.05
2022-09-28T08:36:32.785Z,998.03
2022-09-28T08:46:32.857Z,998.12
2022-09-28T08:56:32.884Z,998.15
2022-09-28T09:06:33.119Z,998.37
2022-09-28T09:16:33.425Z,998.45
2022-09-28T09:26:33.515Z,998.66
2022-09-28T09:36:33.643Z,998.77
2022-09-28T09:46:33.665Z,998.71
2022-09-28T09:56:34.016Z,998.54
2022-09-28T10:06:34.052Z,998.46
2022-09-28T10:16:34.386Z,998.66
2022-09-28T10:26:34.406Z,998.45
2022-09-28T10:36:34.687Z,998.48
2022-09-28T10:46:34.781Z,998.68
2022-09-28T10:56:34.937Z,998.52
2022-09-28T11:06:34.962Z,998.65
2022-09-28T11:16:35.341Z,998.61
2022-09-28T11:26:35.391Z,998.40
2022-09-28T11:36:35.729Z,998.45
2022-09-28T11:46:35.751Z,998.37
2022-09-28T11:56:36.079Z,998.35
2022-09-28T12:06:36.107Z,998.19
2022-09-28T12:17:04.326Z,998.17
2022-09-28T12:26:38.132Z,998.08
2022-09-28T12:36:36.678Z,997.97
2022-09-28T12:46:36.805Z,997.84
2022-09-28T12:56:37.032Z,997.63
2022-09-28T13:06:37.063Z,997.44
2022-09-28T13:16:37.380Z,997.40
2022-09-28T13:26:37.410Z,997.82
2022-09-28T13:36:37.729Z,998.02
2022-09-28T13:46:37.804Z,998.04
2022-09-28T13:56:38.077Z,998.10
2022-09-28T14:06:38.097Z,998.05
2022-09-28T14:16:38.596Z,997.98
2022-09-28T14:26:38.424Z,997.82
2022-09-28T14:36:38.878Z,997.76
2022-09-28T14:46:38.951Z,997.82
2022-09-28T14:56:39.147Z,998.04
2022-09-28T15:06:39.162Z,998.29
2022-09-28T15:16:39.507Z,998.50
2022-09-28T15:26:39.538Z,998.50
2022-09-28T15:36:39.886Z,998.46
2022-09-28T15:46:39.985Z,998.53
2022-09-28T15:56:40.177Z,998.42
2022-09-28T16:06:40.222Z,998.36
2022-09-28T16:16:45.704Z,998.22
2022-09-28T16:26:41.600Z,998.33
2022-09-28T16:36:40.980Z,998.24
2022-09-28T16:46:41.107Z,998.29
2022-09-28T16:56:41.222Z,998.62
2022-09-28T17:06:41.466Z,998.79
2022-09-28T17:26:43.044Z,999.02
2022-09-28T17:36:42.079Z,999.13
2022-09-28T17:46:42.362Z,999.30
2022-09-28T17:56:42.438Z,999.39
2022-09-28T18:06:42.858Z,999.50
2022-09-28T18:16:42.899Z,999.67
2022-09-28T18:26:43.254Z,999.81
2022-09-28T18:36:43.323Z,999.92
2022-09-28T18:46:43.727Z,999.94
2022-09-28T18:56:43.920Z,1000.07
2022-09-28T19:06:44.179Z,1000.13
2022-09-28T19:16:44.251Z,1000.27
2022-09-28T19:26:44.637Z,1000.39
2022-09-28T19:36:44.695Z,1000.47
2022-09-28T19:46:45.175Z,1000.48
2022-09-28T19:56:45.059Z,1000.58
2022-09-28T20:06:45.360Z,1000.54
2022-09-28T20:16:45.398Z,1000.56
2022-09-28T20:26:45.787Z,1000.55
2022-09-28T20:36:45.703Z,1000.57
2022-09-28T20:46:46.127Z,1000.58
2022-09-28T20:56:45.971Z,1000.55
2022-09-28T21:06:46.428Z,1000.61
2022-09-28T21:16:46.448Z,1000.54
2022-09-28T21:26:46.869Z,1000.54
2022-09-28T21:36:46.897Z,1000.51
2022-09-28T21:46:47.307Z,1000.38
2022-09-28T21:56:47.347Z,1000.26
2022-09-28T22:06:47.663Z,1000.15
2022-09-28T22:16:47.690Z,1000.21
2022-09-28T22:26:48.006Z,1000.17
2022-09-28T22:36:48.068Z,1000.15
2022-09-28T22:46:48.386Z,1000.11
2022-09-28T22:56:48.426Z,1000.11
2022-09-28T23:06:48.723Z,1000.04
2022-09-28T23:16:48.760Z,999.84
2022-09-28T23:26:49.068Z,999.81
2022-09-28T23:36:49.111Z,999.85
2022-09-28T23:46:49.373Z,999.84
2022-09-28T23:56:49.485Z,999.82
